Christian Reinauer — WDA6472 — position and weather

sailwx.info

Track history (hours):
 
Tides and Currents Weather Stations Pressure Air Temp Water Temp Dewpoint Dewpoint Depression Visibility Wind Speed Wind Dir Waves Ship Positions

Christian Reinauer

Owner: REINAUER TRANSPORTATION CO LLC, STATEN ISLAND, NY. More information available from US FCC via Universal Licensing System and Coast Guard Vessel Documentation Center.

Last reported at 2017-Aug-18 20:43 UTC. Time now 2017-Aug-19 07:39 UTC.
Position N 40°33' W 074°15'.

Length 172 m; draft 6.4 m.

Type: . MMSI: 366832740.

Date/timePositionNaut miles runAvg speedWind from/ knotsBaromVisibWave heightAir tempDewpointWater temp
2017-Aug-18 20:43N 40°33' W 074°15'0 0.0
2017-Aug-18 20:12N 40°33' W 074°15'0 0.0
2017-Aug-18 19:59N 40°33' W 074°15'4 4.0
2017-Aug-18 19:02N 40°36' W 074°12'0 9.0
2017-Aug-18 19:00N 40°36' W 074°12'4 7.1
2017-Aug-18 18:30N 40°39' W 074°09'510.5
2017-Aug-18 18:00N 40°40' W 074°03'510.2
2017-Aug-18 17:30N 40°44' W 073°58'510.1
2017-Aug-18 17:00N 40°48' W 073°54'510.8
2017-Aug-18 16:30N 40°48' W 073°47'46 1.5
2017-Aug-17 10:31N 41°12' W 072°54'410.9
2017-Aug-17 10:10N 41°10' W 072°58'4011.1
2017-Aug-17 06:35N 40°52' W 073°45'212.3
2017-Aug-17 06:27N 40°50' W 073°46'510.0
2017-Aug-17 05:59N 40°48' W 073°51'5 9.1
2017-Aug-17 05:27N 40°46' W 073°57'511.0
2017-Aug-17 05:00N 40°42' W 074°00'5 9.4
2017-Aug-17 04:30N 40°39' W 074°06'3 6.9
2017-Aug-17 04:00N 40°39' W 074°10'3 5.3
2017-Aug-17 03:30N 40°37' W 074°12'3 5.5
2017-Aug-17 03:00N 40°34' W 074°13'2 4.7
2017-Aug-17 02:30N 40°32' W 074°15'0 0.0
2017-Aug-17 02:00N 40°32' W 074°15'0 0.0
2017-Aug-17 01:30N 40°32' W 074°15'4 5.1
2017-Aug-17 00:45N 40°35' W 074°12'3 9.8
2017-Aug-17 00:30N 40°38' W 074°12'3 5.9
2017-Aug-16 23:57N 40°38' W 074°08'0 0.0
2017-Aug-16 23:27N 40°38' W 074°08'0 0.0
2017-Aug-16 22:51N 40°38' W 074°08'0 0.0
2017-Aug-16 22:30N 40°38' W 074°08'0 0.0
2017-Aug-16 21:57N 40°38' W 074°08'0 0.0
2017-Aug-16 21:30N 40°38' W 074°08'0 0.0
2017-Aug-16 21:00N 40°38' W 074°08'0 0.0
2017-Aug-16 20:30N 40°38' W 074°08'0 0.0
2017-Aug-16 20:00N 40°38' W 074°08'0 0.0
2017-Aug-16 19:30N 40°38' W 074°08'0 0.0
2017-Aug-16 19:00N 40°38' W 074°08'1 2.4
2017-Aug-16 18:30N 40°39' W 074°09'1 2.4
2017-Aug-16 18:00N 40°38' W 074°08'0 0.0
2017-Aug-16 17:30N 40°38' W 074°08'0 0.0
2017-Aug-16 16:57N 40°38' W 074°08'0 0.0
2017-Aug-16 16:27N 40°38' W 074°08'0 0.0
2017-Aug-16 16:00N 40°38' W 074°08'0 0.0
2017-Aug-16 15:27N 40°38' W 074°08'0 0.0
2017-Aug-16 15:00N 40°38' W 074°08'0 0.0
2017-Aug-16 14:30N 40°38' W 074°08'0 0.0
2017-Aug-16 14:00N 40°38' W 074°08'0 0.0
2017-Aug-16 13:24N 40°38' W 074°08'0 0.0
2017-Aug-16 12:57N 40°38' W 074°08'0 0.0
2017-Aug-16 12:21N 40°38' W 074°08'0 0.0
2017-Aug-16 12:00N 40°38' W 074°08'0 0.0
2017-Aug-16 11:18N 40°38' W 074°08'0 0.0
2017-Aug-16 10:57N 40°38' W 074°08'0 0.0
2017-Aug-16 10:27N 40°38' W 074°08'0 0.0
2017-Aug-16 09:59N 40°38' W 074°08'2 3.3
2017-Aug-16 09:30N 40°39' W 074°06'4 7.5
2017-Aug-16 09:00N 40°40' W 074°01'0 0.0
2017-Aug-16 08:28N 40°40' W 074°01'0 0.0
2017-Aug-16 07:58N 40°40' W 074°01'0 0.0
2017-Aug-16 07:28N 40°40' W 074°01'0 0.0
2017-Aug-16 06:58N 40°40' W 074°01'0 0.0
2017-Aug-16 06:28N 40°40' W 074°01'0 0.0
2017-Aug-16 05:58N 40°40' W 074°01'0 0.0
2017-Aug-16 05:28N 40°40' W 074°01'0 0.0
2017-Aug-16 04:58N 40°40' W 074°01'0 0.0
2017-Aug-16 04:28N 40°40' W 074°01'0 0.1
2017-Aug-16 03:58N 40°40' W 074°01'0 0.0
2017-Aug-16 03:28N 40°40' W 074°01'0 0.0
2017-Aug-16 02:58N 40°40' W 074°01'0 0.0
2017-Aug-16 02:28N 40°40' W 074°01'0 0.0
2017-Aug-16 01:58N 40°40' W 074°01'0 0.0
2017-Aug-16 01:30N 40°40' W 074°01'1 2.7
2017-Aug-16 01:01N 40°40' W 074°03'5 9.1
2017-Aug-16 00:30N 40°39' W 074°08'3 6.7
2017-Aug-16 00:00N 40°37' W 074°12'4 7.2
2017-Aug-15 23:30N 40°33' W 074°14'1 2.2
2017-Aug-15 22:59N 40°32' W 074°15'4 3.2
2017-Aug-15 21:38N 40°30' W 074°10'211.0
2017-Aug-15 21:27N 40°30' W 074°08'510.7
2017-Aug-15 21:00N 40°29' W 074°02'12711.0
2017-Aug-15 09:31N 41°13' W 071°25'611.9
2017-Aug-15 09:00N 41°19' W 071°25'1411.6
2017-Aug-15 07:45N 41°33' W 071°19'312.1
2017-Aug-15 07:31N 41°36' W 071°18'611.7
2017-Aug-15 07:00N 41°42' W 071°19'510.6
2017-Aug-15 06:31N 41°46' W 071°22'2 3.9
2017-Aug-15 06:00N 41°48' W 071°24'0 0.0
2017-Aug-15 02:36N 41°48' W 071°24'0 0.0
2017-Aug-15 02:30N 41°48' W 071°24'0 0.0
2017-Aug-14 06:55N 41°48' W 071°24'0 0.0
2017-Aug-14 06:29N 41°48' W 071°24'1 2.4
2017-Aug-14 05:56N 41°47' W 071°23'4 8.3
2017-Aug-14 05:30N 41°44' W 071°22'3 5.9
2017-Aug-14 05:00N 41°41' W 071°19'3 5.3
2017-Aug-14 04:30N 41°39' W 071°19'510.4
2017-Aug-14 03:59N 41°34' W 071°19'13110.0
2017-Aug-13 14:58N 40°29' W 073°50'510.1
2017-Aug-13 14:29N 40°30' W 073°56'5 9.5
2017-Aug-13 14:00N 40°32' W 074°01'510.8
2017-Aug-13 13:30N 40°37' W 074°03'4 7.7
2017-Aug-13 13:00N 40°39' W 074°08'3 6.6
2017-Aug-13 12:29N 40°38' W 074°12'3 5.7
2017-Aug-13 12:00N 40°35' W 074°13'3 6.0
2017-Aug-13 11:30N 40°32' W 074°15'0 0.1
2017-Aug-13 10:57N 40°32' W 074°15'0 0.0
2017-Aug-13 10:30N 40°32' W 074°15'4 6.2
2017-Aug-13 09:56N 40°35' W 074°12'3 8.2
2017-Aug-13 09:30N 40°39' W 074°11'4 6.8
2017-Aug-13 08:59N 40°39' W 074°07'0 0.1
2017-Aug-13 08:29N 40°39' W 074°07'0 0.0
2017-Aug-13 07:56N 40°39' W 074°07'0 0.0
2017-Aug-13 07:29N 40°39' W 074°07'0 0.0
2017-Aug-13 06:59N 40°39' W 074°07'0 0.0
2017-Aug-13 06:29N 40°39' W 074°07'0 0.0
2017-Aug-13 05:59N 40°39' W 074°07'0 0.0
2017-Aug-13 05:26N 40°39' W 074°07'0 0.0
2017-Aug-13 04:59N 40°39' W 074°07'0 0.0
2017-Aug-13 04:26N 40°39' W 074°07'0 0.0
2017-Aug-13 03:56N 40°39' W 074°07'1 2.2
2017-Aug-13 03:30N 40°38' W 074°08'1 1.8
2017-Aug-13 03:00N 40°39' W 074°07'1 1.6
2017-Aug-13 02:28N 40°38' W 074°08'0 0.1
2017-Aug-13 02:00N 40°39' W 074°08'0 0.1
2017-Aug-13 01:29N 40°38' W 074°08'0 0.0
2017-Aug-13 00:59N 40°38' W 074°08'0 0.0
2017-Aug-13 00:26N 40°38' W 074°08'0 0.0
2017-Aug-12 23:59N 40°38' W 074°08'0 0.0
2017-Aug-12 23:26N 40°38' W 074°08'1 2.0
2017-Aug-12 23:00N 40°39' W 074°07'1 1.8
2017-Aug-12 22:30N 40°38' W 074°08'0 0.0
2017-Aug-12 22:00N 40°38' W 074°08'0 0.0
2017-Aug-12 21:30N 40°38' W 074°08'0 0.0
2017-Aug-12 21:00N 40°38' W 074°08'0 0.0
2017-Aug-12 20:30N 40°38' W 074°08'0 0.0
2017-Aug-12 20:00N 40°38' W 074°08'0 0.0
2017-Aug-12 19:30N 40°38' W 074°08'0 0.0
2017-Aug-12 19:00N 40°38' W 074°08'0 0.0
2017-Aug-12 18:30N 40°38' W 074°08'0 0.0
2017-Aug-12 18:00N 40°38' W 074°08'0 0.0
2017-Aug-12 17:30N 40°38' W 074°08'0 0.0
2017-Aug-12 17:00N 40°38' W 074°08'0 0.0
2017-Aug-12 16:30N 40°38' W 074°08'0 0.0
2017-Aug-12 15:57N 40°38' W 074°08'0 0.0
2017-Aug-12 15:30N 40°38' W 074°08'0 0.0
2017-Aug-12 15:00N 40°38' W 074°08'0 0.0
2017-Aug-12 14:30N 40°38' W 074°08'0 0.1
2017-Aug-12 14:00N 40°38' W 074°08'0 0.0
2017-Aug-12 13:30N 40°38' W 074°08'0 0.0
2017-Aug-12 13:00N 40°38' W 074°08'0 0.0
2017-Aug-12 12:30N 40°38' W 074°08'0 0.0
2017-Aug-12 12:00N 40°38' W 074°08'0 0.1
2017-Aug-12 11:30N 40°38' W 074°08'0 0.0
2017-Aug-12 10:59N 40°38' W 074°08'3 6.7
2017-Aug-12 10:30N 40°38' W 074°12'4 7.5
2017-Aug-12 10:00N 40°34' W 074°13'3 5.2
2017-Aug-12 09:29N 40°32' W 074°15'0 0.0
2017-Aug-12 09:00N 40°32' W 074°15'0 0.0
2017-Aug-12 08:30N 40°32' W 074°15'0 0.5
2017-Aug-12 07:58N 40°33' W 074°15'4 5.3
2017-Aug-12 07:17N 40°36' W 074°12'2 7.9
2017-Aug-12 07:00N 40°38' W 074°12'3 6.9
2017-Aug-12 06:30N 40°39' W 074°08'3 6.7
2017-Aug-12 06:00N 40°39' W 074°03'4 8.2
2017-Aug-12 05:30N 40°42' W 073°60'4 7.0
2017-Aug-12 05:00N 40°45' W 073°58'4 8.3
2017-Aug-12 04:29N 40°48' W 073°53'5 9.6
2017-Aug-12 04:00N 40°49' W 073°47'511.2
2017-Aug-12 03:30N 40°53' W 073°43'26 0.7
2017-Aug-10 15:52N 41°06' W 073°13'0 0.1
2017-Aug-10 15:30N 41°06' W 073°13'17 5.5
2017-Aug-10 12:30N 40°57' W 073°32'5 9.2
2017-Aug-10 11:58N 40°55' W 073°38'5 9.5
2017-Aug-10 11:28N 40°53' W 073°43'6 8.1
2017-Aug-10 10:40N 40°48' W 073°49'2 9.3
2017-Aug-10 10:29N 40°48' W 073°51'3 6.9
2017-Aug-10 10:00N 40°47' W 073°55'3 5.1
2017-Aug-10 09:30N 40°45' W 073°58'2 4.9
2017-Aug-10 09:00N 40°43' W 073°58'3 5.4
2017-Aug-10 08:30N 40°41' W 074°01'4 8.2
2017-Aug-10 08:00N 40°39' W 074°06'4 8.2
2017-Aug-10 07:30N 40°39' W 074°11'3 6.4
2017-Aug-10 07:00N 40°36' W 074°12'3 6.0
2017-Aug-10 06:29N 40°33' W 074°15'1 0.0
2017-Aug-09 12:21N 40°32' W 074°15'0 0.0
2017-Aug-09 11:27N 40°32' W 074°15'0 0.0
2017-Aug-09 11:00N 40°32' W 074°15'0 0.0
2017-Aug-09 10:24N 40°32' W 074°15'0 0.0
2017-Aug-09 10:00N 40°32' W 074°15'0 0.0
2017-Aug-09 09:30N 40°32' W 074°15'0 0.0
2017-Aug-09 08:42N 40°32' W 074°15'0 0.0
2017-Aug-09 08:30N 40°32' W 074°15'0 0.0
2017-Aug-09 08:00N 40°32' W 074°15'0 0.0
2017-Aug-09 07:30N 40°32' W 074°15'0 0.0
2017-Aug-09 07:00N 40°32' W 074°15'0 0.0
2017-Aug-09 06:30N 40°32' W 074°15'0 0.0
2017-Aug-09 06:00N 40°32' W 074°15'0 0.0
2017-Aug-09 05:30N 40°32' W 074°15'0 0.0
2017-Aug-08 23:53N 40°32' W 074°15'0 0.0
2017-Aug-08 22:47N 40°32' W 074°15'0 0.0
2017-Aug-08 22:23N 40°32' W 074°15'  
Track history (hours):
 
Tides and Currents Weather Stations Pressure Air Temp Water Temp Dewpoint Dewpoint Depression Visibility Wind Speed Wind Dir Waves Ship Positions

Christian Reinauer

Owner: REINAUER TRANSPORTATION CO LLC, STATEN ISLAND, NY. More information available from US FCC via Universal Licensing System and Coast Guard Vessel Documentation Center.

Last reported at 2017-Aug-18 20:43 UTC. Time now 2017-Aug-19 07:39 UTC.
Position N 40°33' W 074°15'.

Length 172 m; draft 6.4 m.

Type: . MMSI: 366832740.

Date/timePositionNaut miles runAvg speedWind from/ knotsBaromVisibWave heightAir tempDewpointWater temp
2017-Aug-18 20:43N 40°33' W 074°15'0 0.0
2017-Aug-18 20:12N 40°33' W 074°15'0 0.0
2017-Aug-18 19:59N 40°33' W 074°15'4 4.0
2017-Aug-18 19:02N 40°36' W 074°12'0 9.0
2017-Aug-18 19:00N 40°36' W 074°12'4 7.1
2017-Aug-18 18:30N 40°39' W 074°09'510.5
2017-Aug-18 18:00N 40°40' W 074°03'510.2
2017-Aug-18 17:30N 40°44' W 073°58'510.1
2017-Aug-18 17:00N 40°48' W 073°54'510.8
2017-Aug-18 16:30N 40°48' W 073°47'46 1.5
2017-Aug-17 10:31N 41°12' W 072°54'410.9
2017-Aug-17 10:10N 41°10' W 072°58'4011.1
2017-Aug-17 06:35N 40°52' W 073°45'212.3
2017-Aug-17 06:27N 40°50' W 073°46'510.0
2017-Aug-17 05:59N 40°48' W 073°51'5 9.1
2017-Aug-17 05:27N 40°46' W 073°57'511.0
2017-Aug-17 05:00N 40°42' W 074°00'5 9.4
2017-Aug-17 04:30N 40°39' W 074°06'3 6.9
2017-Aug-17 04:00N 40°39' W 074°10'3 5.3
2017-Aug-17 03:30N 40°37' W 074°12'3 5.5
2017-Aug-17 03:00N 40°34' W 074°13'2 4.7
2017-Aug-17 02:30N 40°32' W 074°15'0 0.0
2017-Aug-17 02:00N 40°32' W 074°15'0 0.0
2017-Aug-17 01:30N 40°32' W 074°15'4 5.1
2017-Aug-17 00:45N 40°35' W 074°12'3 9.8
2017-Aug-17 00:30N 40°38' W 074°12'3 5.9
2017-Aug-16 23:57N 40°38' W 074°08'0 0.0
2017-Aug-16 23:27N 40°38' W 074°08'0 0.0
2017-Aug-16 22:51N 40°38' W 074°08'0 0.0
2017-Aug-16 22:30N 40°38' W 074°08'0 0.0
2017-Aug-16 21:57N 40°38' W 074°08'0 0.0
2017-Aug-16 21:30N 40°38' W 074°08'0 0.0
2017-Aug-16 21:00N 40°38' W 074°08'0 0.0
2017-Aug-16 20:30N 40°38' W 074°08'0 0.0
2017-Aug-16 20:00N 40°38' W 074°08'0 0.0
2017-Aug-16 19:30N 40°38' W 074°08'0 0.0
2017-Aug-16 19:00N 40°38' W 074°08'1 2.4
2017-Aug-16 18:30N 40°39' W 074°09'1 2.4
2017-Aug-16 18:00N 40°38' W 074°08'0 0.0
2017-Aug-16 17:30N 40°38' W 074°08'0 0.0
2017-Aug-16 16:57N 40°38' W 074°08'0 0.0
2017-Aug-16 16:27N 40°38' W 074°08'0 0.0
2017-Aug-16 16:00N 40°38' W 074°08'0 0.0
2017-Aug-16 15:27N 40°38' W 074°08'0 0.0
2017-Aug-16 15:00N 40°38' W 074°08'0 0.0
2017-Aug-16 14:30N 40°38' W 074°08'0 0.0
2017-Aug-16 14:00N 40°38' W 074°08'0 0.0
2017-Aug-16 13:24N 40°38' W 074°08'0 0.0
2017-Aug-16 12:57N 40°38' W 074°08'0 0.0
2017-Aug-16 12:21N 40°38' W 074°08'0 0.0
2017-Aug-16 12:00N 40°38' W 074°08'0 0.0
2017-Aug-16 11:18N 40°38' W 074°08'0 0.0
2017-Aug-16 10:57N 40°38' W 074°08'0 0.0
2017-Aug-16 10:27N 40°38' W 074°08'0 0.0
2017-Aug-16 09:59N 40°38' W 074°08'2 3.3
2017-Aug-16 09:30N 40°39' W 074°06'4 7.5
2017-Aug-16 09:00N 40°40' W 074°01'0 0.0
2017-Aug-16 08:28N 40°40' W 074°01'0 0.0
2017-Aug-16 07:58N 40°40' W 074°01'0 0.0
2017-Aug-16 07:28N 40°40' W 074°01'0 0.0
2017-Aug-16 06:58N 40°40' W 074°01'0 0.0
2017-Aug-16 06:28N 40°40' W 074°01'0 0.0
2017-Aug-16 05:58N 40°40' W 074°01'0 0.0
2017-Aug-16 05:28N 40°40' W 074°01'0 0.0
2017-Aug-16 04:58N 40°40' W 074°01'0 0.0
2017-Aug-16 04:28N 40°40' W 074°01'0 0.1
2017-Aug-16 03:58N 40°40' W 074°01'0 0.0
2017-Aug-16 03:28N 40°40' W 074°01'0 0.0
2017-Aug-16 02:58N 40°40' W 074°01'0 0.0
2017-Aug-16 02:28N 40°40' W 074°01'0 0.0
2017-Aug-16 01:58N 40°40' W 074°01'0 0.0
2017-Aug-16 01:30N 40°40' W 074°01'1 2.7
2017-Aug-16 01:01N 40°40' W 074°03'5 9.1
2017-Aug-16 00:30N 40°39' W 074°08'3 6.7
2017-Aug-16 00:00N 40°37' W 074°12'4 7.2
2017-Aug-15 23:30N 40°33' W 074°14'1 2.2
2017-Aug-15 22:59N 40°32' W 074°15'4 3.2
2017-Aug-15 21:38N 40°30' W 074°10'211.0
2017-Aug-15 21:27N 40°30' W 074°08'510.7
2017-Aug-15 21:00N 40°29' W 074°02'12711.0
2017-Aug-15 09:31N 41°13' W 071°25'611.9
2017-Aug-15 09:00N 41°19' W 071°25'1411.6
2017-Aug-15 07:45N 41°33' W 071°19'312.1
2017-Aug-15 07:31N 41°36' W 071°18'611.7
2017-Aug-15 07:00N 41°42' W 071°19'510.6
2017-Aug-15 06:31N 41°46' W 071°22'2 3.9
2017-Aug-15 06:00N 41°48' W 071°24'0 0.0
2017-Aug-15 02:36N 41°48' W 071°24'0 0.0
2017-Aug-15 02:30N 41°48' W 071°24'0 0.0
2017-Aug-14 06:55N 41°48' W 071°24'0 0.0
2017-Aug-14 06:29N 41°48' W 071°24'1 2.4
2017-Aug-14 05:56N 41°47' W 071°23'4 8.3
2017-Aug-14 05:30N 41°44' W 071°22'3 5.9
2017-Aug-14 05:00N 41°41' W 071°19'3 5.3
2017-Aug-14 04:30N 41°39' W 071°19'510.4
2017-Aug-14 03:59N 41°34' W 071°19'13110.0
2017-Aug-13 14:58N 40°29' W 073°50'510.1
2017-Aug-13 14:29N 40°30' W 073°56'5 9.5
2017-Aug-13 14:00N 40°32' W 074°01'510.8
2017-Aug-13 13:30N 40°37' W 074°03'4 7.7
2017-Aug-13 13:00N 40°39' W 074°08'3 6.6
2017-Aug-13 12:29N 40°38' W 074°12'3 5.7
2017-Aug-13 12:00N 40°35' W 074°13'3 6.0
2017-Aug-13 11:30N 40°32' W 074°15'0 0.1
2017-Aug-13 10:57N 40°32' W 074°15'0 0.0
2017-Aug-13 10:30N 40°32' W 074°15'4 6.2
2017-Aug-13 09:56N 40°35' W 074°12'3 8.2
2017-Aug-13 09:30N 40°39' W 074°11'4 6.8
2017-Aug-13 08:59N 40°39' W 074°07'0 0.1
2017-Aug-13 08:29N 40°39' W 074°07'0 0.0
2017-Aug-13 07:56N 40°39' W 074°07'0 0.0
2017-Aug-13 07:29N 40°39' W 074°07'0 0.0
2017-Aug-13 06:59N 40°39' W 074°07'0 0.0
2017-Aug-13 06:29N 40°39' W 074°07'0 0.0
2017-Aug-13 05:59N 40°39' W 074°07'0 0.0
2017-Aug-13 05:26N 40°39' W 074°07'0 0.0
2017-Aug-13 04:59N 40°39' W 074°07'0 0.0
2017-Aug-13 04:26N 40°39' W 074°07'0 0.0
2017-Aug-13 03:56N 40°39' W 074°07'1 2.2
2017-Aug-13 03:30N 40°38' W 074°08'1 1.8
2017-Aug-13 03:00N 40°39' W 074°07'1 1.6
2017-Aug-13 02:28N 40°38' W 074°08'0 0.1
2017-Aug-13 02:00N 40°39' W 074°08'0 0.1
2017-Aug-13 01:29N 40°38' W 074°08'0 0.0
2017-Aug-13 00:59N 40°38' W 074°08'0 0.0
2017-Aug-13 00:26N 40°38' W 074°08'0 0.0
2017-Aug-12 23:59N 40°38' W 074°08'0 0.0
2017-Aug-12 23:26N 40°38' W 074°08'1 2.0
2017-Aug-12 23:00N 40°39' W 074°07'1 1.8
2017-Aug-12 22:30N 40°38' W 074°08'0 0.0
2017-Aug-12 22:00N 40°38' W 074°08'0 0.0
2017-Aug-12 21:30N 40°38' W 074°08'0 0.0
2017-Aug-12 21:00N 40°38' W 074°08'0 0.0
2017-Aug-12 20:30N 40°38' W 074°08'0 0.0
2017-Aug-12 20:00N 40°38' W 074°08'0 0.0
2017-Aug-12 19:30N 40°38' W 074°08'0 0.0
2017-Aug-12 19:00N 40°38' W 074°08'0 0.0
2017-Aug-12 18:30N 40°38' W 074°08'0 0.0
2017-Aug-12 18:00N 40°38' W 074°08'0 0.0
2017-Aug-12 17:30N 40°38' W 074°08'0 0.0
2017-Aug-12 17:00N 40°38' W 074°08'0 0.0
2017-Aug-12 16:30N 40°38' W 074°08'0 0.0
2017-Aug-12 15:57N 40°38' W 074°08'0 0.0
2017-Aug-12 15:30N 40°38' W 074°08'0 0.0
2017-Aug-12 15:00N 40°38' W 074°08'0 0.0
2017-Aug-12 14:30N 40°38' W 074°08'0 0.1
2017-Aug-12 14:00N 40°38' W 074°08'0 0.0
2017-Aug-12 13:30N 40°38' W 074°08'0 0.0
2017-Aug-12 13:00N 40°38' W 074°08'0 0.0
2017-Aug-12 12:30N 40°38' W 074°08'0 0.0
2017-Aug-12 12:00N 40°38' W 074°08'0 0.1
2017-Aug-12 11:30N 40°38' W 074°08'0 0.0
2017-Aug-12 10:59N 40°38' W 074°08'3 6.7
2017-Aug-12 10:30N 40°38' W 074°12'4 7.5
2017-Aug-12 10:00N 40°34' W 074°13'3 5.2
2017-Aug-12 09:29N 40°32' W 074°15'0 0.0
2017-Aug-12 09:00N 40°32' W 074°15'0 0.0
2017-Aug-12 08:30N 40°32' W 074°15'0 0.5
2017-Aug-12 07:58N 40°33' W 074°15'4 5.3
2017-Aug-12 07:17N 40°36' W 074°12'2 7.9
2017-Aug-12 07:00N 40°38' W 074°12'3 6.9
2017-Aug-12 06:30N 40°39' W 074°08'3 6.7
2017-Aug-12 06:00N 40°39' W 074°03'4 8.2
2017-Aug-12 05:30N 40°42' W 073°60'4 7.0
2017-Aug-12 05:00N 40°45' W 073°58'4 8.3
2017-Aug-12 04:29N 40°48' W 073°53'5 9.6
2017-Aug-12 04:00N 40°49' W 073°47'511.2
2017-Aug-12 03:30N 40°53' W 073°43'26 0.7
2017-Aug-10 15:52N 41°06' W 073°13'0 0.1
2017-Aug-10 15:30N 41°06' W 073°13'17 5.5
2017-Aug-10 12:30N 40°57' W 073°32'5 9.2
2017-Aug-10 11:58N 40°55' W 073°38'5 9.5
2017-Aug-10 11:28N 40°53' W 073°43'6 8.1
2017-Aug-10 10:40N 40°48' W 073°49'2 9.3
2017-Aug-10 10:29N 40°48' W 073°51'3 6.9
2017-Aug-10 10:00N 40°47' W 073°55'3 5.1
2017-Aug-10 09:30N 40°45' W 073°58'2 4.9
2017-Aug-10 09:00N 40°43' W 073°58'3 5.4
2017-Aug-10 08:30N 40°41' W 074°01'4 8.2
2017-Aug-10 08:00N 40°39' W 074°06'4 8.2
2017-Aug-10 07:30N 40°39' W 074°11'3 6.4
2017-Aug-10 07:00N 40°36' W 074°12'3 6.0
2017-Aug-10 06:29N 40°33' W 074°15'1 0.0
2017-Aug-09 12:21N 40°32' W 074°15'0 0.0
2017-Aug-09 11:27N 40°32' W 074°15'0 0.0
2017-Aug-09 11:00N 40°32' W 074°15'0 0.0
2017-Aug-09 10:24N 40°32' W 074°15'0 0.0
2017-Aug-09 10:00N 40°32' W 074°15'0 0.0
2017-Aug-09 09:30N 40°32' W 074°15'0 0.0
2017-Aug-09 08:42N 40°32' W 074°15'0 0.0
2017-Aug-09 08:30N 40°32' W 074°15'0 0.0
2017-Aug-09 08:00N 40°32' W 074°15'0 0.0
2017-Aug-09 07:30N 40°32' W 074°15'0 0.0
2017-Aug-09 07:00N 40°32' W 074°15'0 0.0
2017-Aug-09 06:30N 40°32' W 074°15'0 0.0
2017-Aug-09 06:00N 40°32' W 074°15'0 0.0
2017-Aug-09 05:30N 40°32' W 074°15'0 0.0
2017-Aug-08 23:53N 40°32' W 074°15'0 0.0
2017-Aug-08 22:47N 40°32' W 074°15'0 0.0
2017-Aug-08 22:23N 40°32' W 074°15'  

Dump ship's entire track history